sensor_id;sensor_type;location;lat;lon;timestamp;pressure;altitude;pressure_sealevel;temperature;humidity
7614;BME280;3848;42.016;23.098;2023-02-18T00:00:56;98102.56;;;2.12;100.00
7614;BME280;3848;42.016;23.098;2023-02-18T00:03:24;98113.75;;;2.21;100.00
7614;BME280;3848;42.016;23.098;2023-02-18T00:05:52;98115.41;;;2.20;100.00
7614;BME280;3848;42.016;23.098;2023-02-18T00:08:19;97987.00;;;1.44;100.00
7614;BME280;3848;42.016;23.098;2023-02-18T00:10:46;98051.34;;;1.66;100.00
7614;BME280;3848;42.016;23.098;2023-02-18T00:13:13;98114.00;;;1.87;100.00
7614;BME280;3848;42.016;23.098;2023-02-18T00:15:40;98104.47;;;1.78;100.00
7614;BME280;3848;42.016;23.098;2023-02-18T00:18:07;98102.53;;;1.71;100.00
7614;BME280;3848;42.016;23.098;2023-02-18T00:20:34;98101.31;;;1.63;100.00
7614;BME280;3848;42.016;23.098;2023-02-18T00:23:02;98086.78;;;1.54;100.00
7614;BME280;3848;42.016;23.098;2023-02-18T00:25:29;98109.44;;;1.57;100.00
7614;BME280;3848;42.016;23.098;2023-02-18T00:27:56;98112.75;;;1.56;100.00
7614;BME280;3848;42.016;23.098;2023-02-18T00:30:23;98111.03;;;1.55;100.00
7614;BME280;3848;42.016;23.098;2023-02-18T00:32:50;98107.00;;;1.59;100.00
7614;BME280;3848;42.016;23.098;2023-02-18T00:35:16;98102.78;;;1.58;100.00
7614;BME280;3848;42.016;23.098;2023-02-18T00:37:43;98103.75;;;1.61;100.00
7614;BME280;3848;42.016;23.098;2023-02-18T00:40:12;98108.72;;;1.60;100.00
7614;BME280;3848;42.016;23.098;2023-02-18T00:42:38;98093.63;;;1.58;100.00
7614;BME280;3848;42.016;23.098;2023-02-18T00:45:06;98093.81;;;1.63;100.00
7614;BME280;3848;42.016;23.098;2023-02-18T00:47:33;98092.22;;;1.65;100.00
7614;BME280;3848;42.016;23.098;2023-02-18T00:50:00;98088.91;;;1.66;100.00
7614;BME280;3848;42.016;23.098;2023-02-18T00:52:27;98086.34;;;1.64;100.00
7614;BME280;3848;42.016;23.098;2023-02-18T00:54:53;98085.56;;;1.65;100.00
7614;BME280;3848;42.016;23.098;2023-02-18T00:57:21;98010.44;;;1.25;100.00
7614;BME280;3848;42.016;23.098;2023-02-18T00:59:48;98074.84;;;1.68;100.00
7614;BME280;3848;42.016;23.098;2023-02-18T01:02:15;98071.53;;;1.69;100.00
7614;BME280;3848;42.016;23.098;2023-02-18T01:04:42;98045.44;;;1.64;100.00
7614;BME280;3848;42.016;23.098;2023-02-18T01:07:09;98046.44;;;1.67;100.00
7614;BME280;3848;42.016;23.098;2023-02-18T01:09:36;98050.59;;;1.67;100.00
7614;BME280;3848;42.016;23.098;2023-02-18T01:12:03;98049.69;;;1.66;100.00
7614;BME280;3848;42.016;23.098;2023-02-18T01:14:31;98033.56;;;1.60;100.00
7614;BME280;3848;42.016;23.098;2023-02-18T01:16:57;98027.94;;;1.65;100.00
7614;BME280;3848;42.016;23.098;2023-02-18T01:19:24;98031.25;;;1.64;100.00
7614;BME280;3848;42.016;23.098;2023-02-18T01:21:51;98024.97;;;1.53;100.00
7614;BME280;3848;42.016;23.098;2023-02-18T01:24:18;98029.91;;;1.51;100.00
7614;BME280;3848;42.016;23.098;2023-02-18T01:26:45;98029.91;;;1.51;100.00
7614;BME280;3848;42.016;23.098;2023-02-18T01:29:11;98027.06;;;1.44;100.00
7614;BME280;3848;42.016;23.098;2023-02-18T01:31:40;98031.69;;;1.35;100.00
7614;BME280;3848;42.016;23.098;2023-02-18T01:34:06;98024.97;;;1.34;100.00
7614;BME280;3848;42.016;23.098;2023-02-18T01:36:33;98023.22;;;1.31;100.00
7614;BME280;3848;42.016;23.098;2023-02-18T01:39:00;98028.28;;;1.33;100.00
7614;BME280;3848;42.016;23.098;2023-02-18T01:41:27;98020.59;;;1.28;100.00
7614;BME280;3848;42.016;23.098;2023-02-18T01:44:14;98009.50;;;1.23;100.00
7614;BME280;3848;42.016;23.098;2023-02-18T01:46:43;98009.72;;;1.28;100.00
7614;BME280;3848;42.016;23.098;2023-02-18T01:49:11;98011.31;;;1.26;100.00
7614;BME280;3848;42.016;23.098;2023-02-18T01:51:42;98011.16;;;1.22;100.00
7614;BME280;3848;42.016;23.098;2023-02-18T01:54:12;98000.03;;;1.16;100.00
7614;BME280;3848;42.016;23.098;2023-02-18T01:56:43;98011.06;;;1.21;100.00
7614;BME280;3848;42.016;23.098;2023-02-18T01:59:14;98005.75;;;1.13;100.00
7614;BME280;3848;42.016;23.098;2023-02-18T02:01:44;98001.53;;;1.12;100.00
7614;BME280;3848;42.016;23.098;2023-02-18T02:04:11;98002.41;;;1.13;100.00
7614;BME280;3848;42.016;23.098;2023-02-18T02:06:38;98003.78;;;1.06;100.00
7614;BME280;3848;42.016;23.098;2023-02-18T02:09:09;98010.38;;;1.04;100.00
7614;BME280;3848;42.016;23.098;2023-02-18T02:12:05;98022.22;;;1.08;100.00
7614;BME280;3848;42.016;23.098;2023-02-18T02:14:54;98019.50;;;1.04;100.00
7614;BME280;3848;42.016;23.098;2023-02-18T02:17:31;98028.81;;;1.06;100.00
7614;BME280;3848;42.016;23.098;2023-02-18T02:26:20;98038.28;;;0.94;100.00
7614;BME280;3848;42.016;23.098;2023-02-18T02:29:04;98036.31;;;0.87;100.00
7614;BME280;3848;42.016;23.098;2023-02-18T02:31:59;98038.16;;;0.91;100.00
7614;BME280;3848;42.016;23.098;2023-02-18T02:34:38;98051.31;;;0.87;100.00
7614;BME280;3848;42.016;23.098;2023-02-18T02:37:13;98047.66;;;0.80;100.00
7614;BME280;3848;42.016;23.098;2023-02-18T02:39:50;98044.16;;;0.77;100.00
7614;BME280;3848;42.016;23.098;2023-02-18T02:42:26;98049.03;;;0.74;100.00
7614;BME280;3848;42.016;23.098;2023-02-18T02:45:00;98046.53;;;0.74;100.00
7614;BME280;3848;42.016;23.098;2023-02-18T02:47:35;98054.03;;;0.74;100.00
7614;BME280;3848;42.016;23.098;2023-02-18T02:50:09;98051.78;;;0.60;100.00
7614;BME280;3848;42.016;23.098;2023-02-18T02:52:43;98057.09;;;0.49;100.00
7614;BME280;3848;42.016;23.098;2023-02-18T02:55:12;98060.66;;;0.36;100.00
7614;BME280;3848;42.016;23.098;2023-02-18T02:57:47;98032.81;;;0.11;100.00
7614;BME280;3848;42.016;23.098;2023-02-18T03:00:18;98065.03;;;0.22;100.00
7614;BME280;3848;42.016;23.098;2023-02-18T03:03:01;98061.34;;;0.16;100.00
7614;BME280;3848;42.016;23.098;2023-02-18T03:05:42;98062.94;;;0.14;100.00
7614;BME280;3848;42.016;23.098;2023-02-18T03:08:22;98063.72;;;0.13;100.00
7614;BME280;3848;42.016;23.098;2023-02-18T03:10:56;98067.78;;;0.11;100.00
7614;BME280;3848;42.016;23.098;2023-02-18T03:13:31;98068.13;;;0.01;100.00
7614;BME280;3848;42.016;23.098;2023-02-18T03:16:07;98066.31;;;-0.02;100.00
7614;BME280;3848;42.016;23.098;2023-02-18T03:18:39;98034.59;;;-0.21;100.00
7614;BME280;3848;42.016;23.098;2023-02-18T03:21:12;98060.19;;;-0.09;100.00
7614;BME280;3848;42.016;23.098;2023-02-18T03:23:45;98032.53;;;-0.29;100.00
7614;BME280;3848;42.016;23.098;2023-02-18T03:26:17;98049.44;;;-0.24;100.00
7614;BME280;3848;42.016;23.098;2023-02-18T03:28:45;98071.47;;;-0.17;100.00
7614;BME280;3848;42.016;23.098;2023-02-18T03:31:17;98038.75;;;-0.39;100.00
7614;BME280;3848;42.016;23.098;2023-02-18T03:33:50;98076.31;;;-0.20;100.00
7614;BME280;3848;42.016;23.098;2023-02-18T03:36:20;98075.81;;;-0.13;100.00
7614;BME280;3848;42.016;23.098;2023-02-18T03:38:53;98071.06;;;-0.24;100.00
7614;BME280;3848;42.016;23.098;2023-02-18T03:41:22;98082.84;;;-0.22;100.00
7614;BME280;3848;42.016;23.098;2023-02-18T03:43:49;98083.69;;;-0.21;100.00
7614;BME280;3848;42.016;23.098;2023-02-18T03:46:16;98078.69;;;-0.21;100.00
7614;BME280;3848;42.016;23.098;2023-02-18T03:48:43;98080.72;;;-0.14;100.00
7614;BME280;3848;42.016;23.098;2023-02-18T03:51:10;98084.22;;;-0.11;100.00
7614;BME280;3848;42.016;23.098;2023-02-18T03:53:38;98076.88;;;-0.08;100.00
7614;BME280;3848;42.016;23.098;2023-02-18T03:56:05;98066.47;;;-0.17;100.00
7614;BME280;3848;42.016;23.098;2023-02-18T03:58:32;98080.94;;;-0.10;100.00
7614;BME280;3848;42.016;23.098;2023-02-18T04:00:58;98079.25;;;-0.11;100.00
7614;BME280;3848;42.016;23.098;2023-02-18T04:03:25;98078.25;;;-0.14;100.00
7614;BME280;3848;42.016;23.098;2023-02-18T04:05:52;98081.44;;;-0.17;100.00
7614;BME280;3848;42.016;23.098;2023-02-18T04:08:19;98083.22;;;-0.14;100.00
7614;BME280;3848;42.016;23.098;2023-02-18T04:10:47;98075.53;;;-0.19;100.00
7614;BME280;3848;42.016;23.098;2023-02-18T04:13:14;98098.50;;;-0.08;100.00
7614;BME280;3848;42.016;23.098;2023-02-18T04:15:42;98093.72;;;-0.04;100.00
7614;BME280;3848;42.016;23.098;2023-02-18T04:18:09;98097.09;;;-0.03;100.00
7614;BME280;3848;42.016;23.098;2023-02-18T04:20:35;98082.09;;;-0.03;100.00
7614;BME280;3848;42.016;23.098;2023-02-18T04:23:02;98095.06;;;0.06;100.00
7614;BME280;3848;42.016;23.098;2023-02-18T04:25:29;98100.91;;;0.07;100.00
7614;BME280;3848;42.016;23.098;2023-02-18T04:27:58;98109.03;;;0.03;100.00
7614;BME280;3848;42.016;23.098;2023-02-18T04:30:24;98115.91;;;0.07;100.00
7614;BME280;3848;42.016;23.098;2023-02-18T04:32:51;98115.19;;;0.09;100.00
7614;BME280;3848;42.016;23.098;2023-02-18T04:35:18;98122.75;;;0.11;100.00
7614;BME280;3848;42.016;23.098;2023-02-18T04:37:45;98078.69;;;-0.21;100.00
7614;BME280;3848;42.016;23.098;2023-02-18T04:40:12;98136.88;;;0.10;100.00
7614;BME280;3848;42.016;23.098;2023-02-18T04:42:39;98128.53;;;0.10;100.00
7614;BME280;3848;42.016;23.098;2023-02-18T04:45:08;98132.38;;;0.03;100.00
7614;BME280;3848;42.016;23.098;2023-02-18T04:47:35;98121.13;;;-0.05;100.00
7614;BME280;3848;42.016;23.098;2023-02-18T04:50:02;98135.41;;;-0.03;100.00
7614;BME280;3848;42.016;23.098;2023-02-18T04:52:29;98139.41;;;-0.06;100.00
7614;BME280;3848;42.016;23.098;2023-02-18T04:54:55;98138.53;;;-0.07;100.00
7614;BME280;3848;42.016;23.098;2023-02-18T04:57:22;98124.63;;;-0.19;100.00
7614;BME280;3848;42.016;23.098;2023-02-18T04:59:49;98138.09;;;-0.16;100.00
7614;BME280;3848;42.016;23.098;2023-02-18T05:02:17;98134.13;;;-0.12;100.00
7614;BME280;3848;42.016;23.098;2023-02-18T05:04:44;98125.47;;;-0.19;100.00
7614;BME280;3848;42.016;23.098;2023-02-18T05:07:11;98132.00;;;-0.21;100.00
7614;BME280;3848;42.016;23.098;2023-02-18T05:09:38;98137.31;;;-0.31;100.00
7614;BME280;3848;42.016;23.098;2023-02-18T05:12:05;98134.75;;;-0.33;100.00
7614;BME280;3848;42.016;23.098;2023-02-18T05:14:32;98137.31;;;-0.31;100.00
7614;BME280;3848;42.016;23.098;2023-02-18T05:16:59;98132.41;;;-0.29;100.00
7614;BME280;3848;42.016;23.098;2023-02-18T05:19:27;98133.41;;;-0.26;100.00
7614;BME280;3848;42.016;23.098;2023-02-18T05:21:54;98135.38;;;-0.20;100.00
7614;BME280;3848;42.016;23.098;2023-02-18T05:24:21;98127.78;;;-0.22;100.00
7614;BME280;3848;42.016;23.098;2023-02-18T05:26:47;98117.28;;;-0.33;100.00
7614;BME280;3848;42.016;23.098;2023-02-18T05:29:14;98126.34;;;-0.35;100.00
7614;BME280;3848;42.016;23.098;2023-02-18T05:31:41;98132.03;;;-0.37;100.00
7614;BME280;3848;42.016;23.098;2023-02-18T05:34:08;98135.16;;;-0.41;100.00
7614;BME280;3848;42.016;23.098;2023-02-18T05:36:36;98137.41;;;-0.46;100.00
7614;BME280;3848;42.016;23.098;2023-02-18T05:39:03;98126.56;;;-0.46;100.00
7614;BME280;3848;42.016;23.098;2023-02-18T05:41:29;98136.41;;;-0.33;100.00
7614;BME280;3848;42.016;23.098;2023-02-18T05:43:56;98135.69;;;-0.31;100.00
7614;BME280;3848;42.016;23.098;2023-02-18T05:46:40;98126.94;;;-0.22;100.00
7614;BME280;3848;42.016;23.098;2023-02-18T05:49:07;98126.75;;;-0.09;100.00
7614;BME280;3848;42.016;23.098;2023-02-18T05:51:35;98128.84;;;-0.01;100.00
7614;BME280;3848;42.016;23.098;2023-02-18T05:54:02;98129.03;;;0.03;100.00
7614;BME280;3848;42.016;23.098;2023-02-18T05:56:29;98114.81;;;0.02;100.00
7614;BME280;3848;42.016;23.098;2023-02-18T05:58:56;98127.88;;;0.14;100.00
7614;BME280;3848;42.016;23.098;2023-02-18T06:01:22;98128.88;;;0.17;100.00
7614;BME280;3848;42.016;23.098;2023-02-18T06:03:49;98138.94;;;0.19;100.00
7614;BME280;3848;42.016;23.098;2023-02-18T06:06:16;98144.13;;;0.22;100.00
7614;BME280;3848;42.016;23.098;2023-02-18T06:08:44;98138.78;;;0.32;100.00
7614;BME280;3848;42.016;23.098;2023-02-18T06:11:11;98140.63;;;0.36;100.00
7614;BME280;3848;42.016;23.098;2023-02-18T06:13:38;98139.19;;;0.41;100.00
7614;BME280;3848;42.016;23.098;2023-02-18T06:16:05;98139.13;;;0.40;100.00
7614;BME280;3848;42.016;23.098;2023-02-18T06:18:32;98139.38;;;0.44;100.00
7614;BME280;3848;42.016;23.098;2023-02-18T06:20:58;98133.88;;;0.51;100.00
7614;BME280;3848;42.016;23.098;2023-02-18T06:23:25;98118.88;;;0.51;100.00
7614;BME280;3848;42.016;23.098;2023-02-18T06:25:54;98134.59;;;0.67;100.00
7614;BME280;3848;42.016;23.098;2023-02-18T06:28:20;98137.09;;;0.67;100.00
7614;BME280;3848;42.016;23.098;2023-02-18T06:30:48;98148.31;;;0.75;100.00
7614;BME280;3848;42.016;23.098;2023-02-18T06:33:15;98145.78;;;0.75;100.00
7614;BME280;3848;42.016;23.098;2023-02-18T06:35:41;98140.94;;;0.78;100.00
7614;BME280;3848;42.016;23.098;2023-02-18T06:38:08;98137.78;;;0.82;100.00
7614;BME280;3848;42.016;23.098;2023-02-18T06:40:35;98132.72;;;0.45;100.00
7614;BME280;3848;42.016;23.098;2023-02-18T06:43:03;98155.94;;;0.42;100.00
7614;BME280;3848;42.016;23.098;2023-02-18T06:45:30;98160.56;;;0.35;100.00
7614;BME280;3848;42.016;23.098;2023-02-18T06:47:56;98148.47;;;0.26;100.00
7614;BME280;3848;42.016;23.098;2023-02-18T06:50:23;98125.81;;;0.05;100.00
7614;BME280;3848;42.016;23.098;2023-02-18T06:52:50;98150.94;;;0.08;100.00
7614;BME280;3848;42.016;23.098;2023-02-18T06:55:17;98147.44;;;0.05;100.00
7614;BME280;3848;42.016;23.098;2023-02-18T06:57:43;98147.91;;;-0.03;100.00
7614;BME280;3848;42.016;23.098;2023-02-18T07:00:12;98141.97;;;-0.05;100.00
7614;BME280;3848;42.016;23.098;2023-02-18T07:02:39;98135.13;;;-0.09;100.00
7614;BME280;3848;42.016;23.098;2023-02-18T07:05:06;98142.13;;;-0.02;100.00
7614;BME280;3848;42.016;23.098;2023-02-18T07:07:33;98144.72;;;0.00;100.00
7614;BME280;3848;42.016;23.098;2023-02-18T07:10:01;98147.72;;;0.11;100.00
7614;BME280;3848;42.016;23.098;2023-02-18T07:12:27;98143.16;;;0.20;100.00
7614;BME280;3848;42.016;23.098;2023-02-18T07:14:54;98147.19;;;0.34;100.00
7614;BME280;3848;42.016;23.098;2023-02-18T07:17:22;98146.22;;;0.48;100.00
7614;BME280;3848;42.016;23.098;2023-02-18T07:19:49;98149.94;;;0.56;100.00
7614;BME280;3848;42.016;23.098;2023-02-18T07:22:16;98139.72;;;0.70;100.00
7614;BME280;3848;42.016;23.098;2023-02-18T07:24:43;98126.22;;;0.84;100.00
7614;BME280;3848;42.016;23.098;2023-02-18T07:27:10;98123.78;;;0.85;100.00
7614;BME280;3848;42.016;23.098;2023-02-18T07:29:36;98124.00;;;0.90;100.00
7614;BME280;3848;42.016;23.098;2023-02-18T07:32:04;98012.22;;;0.34;100.00
7614;BME280;3848;42.016;23.098;2023-02-18T07:34:32;98126.00;;;1.16;100.00
7614;BME280;3848;42.016;23.098;2023-02-18T07:36:59;98126.69;;;1.32;100.00
7614;BME280;3848;42.016;23.098;2023-02-18T07:39:26;98136.78;;;1.52;100.00
7614;BME280;3848;42.016;23.098;2023-02-18T07:41:53;98131.72;;;1.70;100.00
7614;BME280;3848;42.016;23.098;2023-02-18T07:44:20;98124.78;;;1.84;100.00
7614;BME280;3848;42.016;23.098;2023-02-18T07:46:46;98120.16;;;1.93;100.00
7614;BME280;3848;42.016;23.098;2023-02-18T07:49:13;98129.09;;;2.07;100.00
7614;BME280;3848;42.016;23.098;2023-02-18T07:51:41;98123.09;;;2.25;100.00
7614;BME280;3848;42.016;23.098;2023-02-18T07:54:08;98124.53;;;2.39;100.00
7614;BME280;3848;42.016;23.098;2023-02-18T07:56:35;98116.28;;;2.41;100.00
7614;BME280;3848;42.016;23.098;2023-02-18T07:59:02;98116.88;;;2.57;100.00
7614;BME280;3848;42.016;23.098;2023-02-18T08:01:29;98105.34;;;2.62;100.00
7614;BME280;3848;42.016;23.098;2023-02-18T08:03:55;98103.50;;;2.79;100.00
7614;BME280;3848;42.016;23.098;2023-02-18T08:06:25;98103.63;;;2.82;100.00
7614;BME280;3848;42.016;23.098;2023-02-18T08:08:54;98090.44;;;2.87;100.00
7614;BME280;3848;42.016;23.098;2023-02-18T08:11:21;98091.66;;;2.97;100.00
7614;BME280;3848;42.016;23.098;2023-02-18T08:13:48;98087.91;;;3.10;100.00
7614;BME280;3848;42.016;23.098;2023-02-18T08:16:16;98085.66;;;3.16;100.00
7614;BME280;3848;42.016;23.098;2023-02-18T08:18:43;98035.63;;;2.98;100.00
7614;BME280;3848;42.016;23.098;2023-02-18T08:21:12;98095.81;;;3.43;100.00
7614;BME280;3848;42.016;23.098;2023-02-18T08:23:39;98095.28;;;3.51;100.00
7614;BME280;3848;42.016;23.098;2023-02-18T08:26:08;98093.91;;;3.59;100.00
7614;BME280;3848;42.016;23.098;2023-02-18T08:28:35;98095.16;;;3.72;100.00
7614;BME280;3848;42.016;23.098;2023-02-18T08:31:02;98077.63;;;3.74;100.00
7614;BME280;3848;42.016;23.098;2023-02-18T08:33:29;98088.81;;;3.82;100.00
7614;BME280;3848;42.016;23.098;2023-02-18T08:35:56;98091.38;;;3.83;100.00
7614;BME280;3848;42.016;23.098;2023-02-18T08:38:23;98076.28;;;3.83;100.00
7614;BME280;3848;42.016;23.098;2023-02-18T08:40:50;98083.91;;;3.86;100.00
7614;BME280;3848;42.016;23.098;2023-02-18T08:43:27;98088.28;;;3.92;100.00
7614;BME280;3848;42.016;23.098;2023-02-18T08:45:56;98090.00;;;3.93;100.00
7614;BME280;3848;42.016;23.098;2023-02-18T08:48:23;98091.59;;;3.91;100.00
7614;BME280;3848;42.016;23.098;2023-02-18T08:50:51;98085.78;;;3.92;100.00
7614;BME280;3848;42.016;23.098;2023-02-18T08:53:17;98077.66;;;3.99;100.00
7614;BME280;3848;42.016;23.098;2023-02-18T08:55:44;98081.13;;;4.03;100.00
7614;BME280;3848;42.016;23.098;2023-02-18T08:58:12;98068.53;;;4.03;100.00
7614;BME280;3848;42.016;23.098;2023-02-18T09:00:41;98063.56;;;4.04;100.00
7614;BME280;3848;42.016;23.098;2023-02-18T09:03:11;98077.63;;;4.24;100.00
7614;BME280;3848;42.016;23.098;2023-02-18T09:05:38;98079.16;;;4.46;100.00
7614;BME280;3848;42.016;23.098;2023-02-18T09:08:05;98074.41;;;4.55;100.00
7614;BME280;3848;42.016;23.098;2023-02-18T09:10:31;98080.75;;;4.71;100.00
7614;BME280;3848;42.016;23.098;2023-02-18T09:12:58;98076.19;;;4.86;100.00
7614;BME280;3848;42.016;23.098;2023-02-18T09:15:25;98069.91;;;5.01;100.00
7614;BME280;3848;42.016;23.098;2023-02-18T09:17:53;98068.44;;;5.09;100.00
7614;BME280;3848;42.016;23.098;2023-02-18T09:20:20;98054.78;;;5.31;100.00
7614;BME280;3848;42.016;23.098;2023-02-18T09:22:47;98053.03;;;5.60;100.00
7614;BME280;3848;42.016;23.098;2023-02-18T09:25:13;98041.66;;;5.74;100.00
7614;BME280;3848;42.016;23.098;2023-02-18T09:27:40;98041.28;;;5.92;100.00
7614;BME280;3848;42.016;23.098;2023-02-18T09:30:07;98049.25;;;6.07;100.00
7614;BME280;3848;42.016;23.098;2023-02-18T09:32:34;98040.16;;;6.14;100.00
7614;BME280;3848;42.016;23.098;2023-02-18T09:35:03;98041.41;;;6.31;100.00
7614;BME280;3848;42.016;23.098;2023-02-18T09:37:30;98051.94;;;6.49;100.00
7614;BME280;3848;42.016;23.098;2023-02-18T09:39:57;98037.78;;;6.96;100.00
7614;BME280;3848;42.016;23.098;2023-02-18T09:42:29;98044.94;;;7.59;100.00
7614;BME280;3848;42.016;23.098;2023-02-18T09:44:59;98039.97;;;8.14;100.00
7614;BME280;3848;42.016;23.098;2023-02-18T09:47:32;98029.47;;;8.42;96.21
7614;BME280;3848;42.016;23.098;2023-02-18T09:50:07;98016.50;;;8.80;93.65
7614;BME280;3848;42.016;23.098;2023-02-18T09:52:35;98004.88;;;8.96;87.02
7614;BME280;3848;42.016;23.098;2023-02-18T09:55:17;97999.25;;;9.21;82.29
7614;BME280;3848;42.016;23.098;2023-02-18T09:57:46;97996.97;;;9.42;79.88
7614;BME280;3848;42.016;23.098;2023-02-18T10:00:16;97995.38;;;9.54;76.76
7614;BME280;3848;42.016;23.098;2023-02-18T10:02:52;97994.75;;;9.77;75.03
7614;BME280;3848;42.016;23.098;2023-02-18T10:05:22;97973.69;;;9.86;74.27
7614;BME280;3848;42.016;23.098;2023-02-18T10:07:53;97977.03;;;9.84;72.54
7614;BME280;3848;42.016;23.098;2023-02-18T10:10:31;97969.81;;;10.29;74.79
7614;BME280;3848;42.016;23.098;2023-02-18T10:13:00;97966.28;;;10.15;68.96
7614;BME280;3848;42.016;23.098;2023-02-18T10:15:30;97975.72;;;10.28;69.84
7614;BME280;3848;42.016;23.098;2023-02-18T10:17:58;97959.94;;;10.84;66.74
7614;BME280;3848;42.016;23.098;2023-02-18T10:20:29;97957.50;;;11.21;69.00
7614;BME280;3848;42.016;23.098;2023-02-18T10:23:00;97939.78;;;11.73;66.56
7614;BME280;3848;42.016;23.098;2023-02-18T10:25:30;97940.66;;;11.95;62.19
7614;BME280;3848;42.016;23.098;2023-02-18T10:27:58;97940.66;;;11.96;60.13
7614;BME280;3848;42.016;23.098;2023-02-18T10:30:30;97931.31;;;12.06;59.55
7614;BME280;3848;42.016;23.098;2023-02-18T10:33:04;97926.22;;;12.13;59.79
7614;BME280;3848;42.016;23.098;2023-02-18T10:35:43;97916.84;;;12.26;60.49
7614;BME280;3848;42.016;23.098;2023-02-18T10:38:17;97915.03;;;12.65;62.41
7614;BME280;3848;42.016;23.098;2023-02-18T10:40:55;97902.91;;;13.19;61.38
7614;BME280;3848;42.016;23.098;2023-02-18T10:43:29;97895.88;;;13.54;57.20
7614;BME280;3848;42.016;23.098;2023-02-18T10:46:04;97844.59;;;13.79;55.04
7614;BME280;3848;42.016;23.098;2023-02-18T10:48:48;97876.31;;;14.44;54.69
7614;BME280;3848;42.016;23.098;2023-02-18T10:51:21;97869.28;;;14.62;53.04
7614;BME280;3848;42.016;23.098;2023-02-18T10:53:51;97854.72;;;14.66;52.91
7614;BME280;3848;42.016;23.098;2023-02-18T10:56:38;97863.38;;;15.20;53.51
7614;BME280;3848;42.016;23.098;2023-02-18T10:59:10;97858.50;;;15.61;53.98
7614;BME280;3848;42.016;23.098;2023-02-18T11:01:38;97814.00;;;15.66;51.74
7614;BME280;3848;42.016;23.098;2023-02-18T11:04:11;97854.63;;;15.88;50.67
7614;BME280;3848;42.016;23.098;2023-02-18T11:06:43;97848.06;;;15.71;52.66
7614;BME280;3848;42.016;23.098;2023-02-18T11:09:29;97826.47;;;15.34;49.30
7614;BME280;3848;42.016;23.098;2023-02-18T11:12:02;97828.38;;;15.19;50.33
7614;BME280;3848;42.016;23.098;2023-02-18T11:14:40;97820.44;;;14.78;50.13
7614;BME280;3848;42.016;23.098;2023-02-18T11:17:15;97816.69;;;15.03;51.55
7614;BME280;3848;42.016;23.098;2023-02-18T11:19:45;97818.81;;;15.31;50.20
7614;BME280;3848;42.016;23.098;2023-02-18T11:22:21;97803.47;;;15.31;50.67
7614;BME280;3848;42.016;23.098;2023-02-18T11:24:53;97800.03;;;15.32;49.15
7614;BME280;3848;42.016;23.098;2023-02-18T11:27:24;97791.63;;;15.23;48.86
7614;BME280;3848;42.016;23.098;2023-02-18T11:29:53;97793.91;;;15.42;51.31
7614;BME280;3848;42.016;23.098;2023-02-18T11:32:25;97783.78;;;15.33;48.28
7614;BME280;3848;42.016;23.098;2023-02-18T11:34:52;97786.19;;;15.43;48.63
7614;BME280;3848;42.016;23.098;2023-02-18T11:37:21;97785.22;;;15.49;48.55
7614;BME280;3848;42.016;23.098;2023-02-18T11:39:50;97772.47;;;15.46;48.62
7614;BME280;3848;42.016;23.098;2023-02-18T11:42:19;97726.53;;;15.37;48.07
7614;BME280;3848;42.016;23.098;2023-02-18T11:44:51;97764.28;;;15.76;47.76
7614;BME280;3848;42.016;23.098;2023-02-18T11:47:21;97760.72;;;15.85;48.49
7614;BME280;3848;42.016;23.098;2023-02-18T11:50:14;97756.53;;;15.79;51.29
7614;BME280;3848;42.016;23.098;2023-02-18T11:52:44;97746.63;;;15.60;48.28
7614;BME280;3848;42.016;23.098;2023-02-18T11:55:15;97749.72;;;15.78;48.50
7614;BME280;3848;42.016;23.098;2023-02-18T11:57:45;97741.59;;;16.00;47.90
7614;BME280;3848;42.016;23.098;2023-02-18T12:00:20;97740.41;;;16.17;47.13
7614;BME280;3848;42.016;23.098;2023-02-18T12:02:48;97730.78;;;16.29;46.68
7614;BME280;3848;42.016;23.098;2023-02-18T12:05:20;97728.31;;;16.23;46.46
7614;BME280;3848;42.016;23.098;2023-02-18T12:07:51;97678.84;;;16.17;46.81
7614;BME280;3848;42.016;23.098;2023-02-18T12:10:25;97734.97;;;16.73;47.30
7614;BME280;3848;42.016;23.098;2023-02-18T12:12:57;97718.00;;;17.01;46.97
7614;BME280;3848;42.016;23.098;2023-02-18T12:15:33;97705.16;;;17.37;46.88
7614;BME280;3848;42.016;23.098;2023-02-18T12:18:32;97697.75;;;17.57;45.00
7614;BME280;3848;42.016;23.098;2023-02-18T12:21:12;97693.66;;;17.83;45.94
7614;BME280;3848;42.016;23.098;2023-02-18T12:23:53;97694.63;;;17.79;43.31
7614;BME280;3848;42.016;23.098;2023-02-18T12:26:25;97689.72;;;17.70;43.62
7614;BME280;3848;42.016;23.098;2023-02-18T12:29:04;97686.91;;;17.79;43.41
7614;BME280;3848;42.016;23.098;2023-02-18T12:34:45;97668.03;;;18.09;45.15
7614;BME280;3848;42.016;23.098;2023-02-18T12:37:32;97676.53;;;18.11;43.74
7614;BME280;3848;42.016;23.098;2023-02-18T12:40:22;97673.13;;;17.81;43.21
7614;BME280;3848;42.016;23.098;2023-02-18T12:42:56;97664.25;;;17.60;42.75
7614;BME280;3848;42.016;23.098;2023-02-18T12:45:44;97661.06;;;17.52;45.35
7614;BME280;3848;42.016;23.098;2023-02-18T12:48:37;97661.16;;;17.49;44.35
7614;BME280;3848;42.016;23.098;2023-02-18T12:51:34;97657.38;;;17.61;45.49
7614;BME280;3848;42.016;23.098;2023-02-18T12:54:17;97658.69;;;17.77;43.52
7614;BME280;3848;42.016;23.098;2023-02-18T12:57:01;97656.53;;;17.93;42.81
7614;BME280;3848;42.016;23.098;2023-02-18T12:59:55;97643.16;;;18.10;44.76
7614;BME280;3848;42.016;23.098;2023-02-18T13:02:38;97637.88;;;18.14;44.06
7614;BME280;3848;42.016;23.098;2023-02-18T13:05:12;97649.94;;;18.40;43.93
7614;BME280;3848;42.016;23.098;2023-02-18T13:07:54;97655.50;;;18.26;42.13
7614;BME280;3848;42.016;23.098;2023-02-18T13:10:42;97652.53;;;18.12;43.14
7614;BME280;3848;42.016;23.098;2023-02-18T13:13:18;97654.00;;;17.91;42.80
7614;BME280;3848;42.016;23.098;2023-02-18T13:15:47;97643.59;;;17.63;41.57
7614;BME280;3848;42.016;23.098;2023-02-18T13:18:20;97640.66;;;17.46;41.84
7614;BME280;3848;42.016;23.098;2023-02-18T13:20:50;97623.94;;;17.31;44.12
7614;BME280;3848;42.016;23.098;2023-02-18T13:23:20;97628.78;;;17.11;41.45
7614;BME280;3848;42.016;23.098;2023-02-18T13:25:50;97625.97;;;16.86;42.70
7614;BME280;3848;42.016;23.098;2023-02-18T13:28:25;97617.69;;;16.75;42.44
7614;BME280;3848;42.016;23.098;2023-02-18T13:31:03;97623.72;;;16.74;42.94
7614;BME280;3848;42.016;23.098;2023-02-18T13:33:36;97619.84;;;16.56;42.69
7614;BME280;3848;42.016;23.098;2023-02-18T13:36:09;97617.97;;;16.63;42.70